Time;durP1;ratioP1;P1;durP2;ratioP2;P2;SDS_P1;SDS_P2;PMS_P1;PMS_P2;Temp;Humidity;BMP_temperature;BMP_pressure;BME280_temperature;BME280_humidity;BME280_pressure;Samples;Min_cycle;Max_cycle;Signal;HPM_P1;HPM_P2
2021/01/31 00:00:56;;;;;;;4.15;1.10;;;16.20;63.20;;;;;;6337853;22;19999;-76
2021/01/31 00:03:24;;;;;;;3.15;0.98;;;16.20;63.20;;;;;;6337692;22;20026;-76
2021/01/31 00:05:50;;;;;;;;;;;16.20;63.20;;;;;;6363671;22;20087;-76
2021/01/31 00:08:18;;;;;;;2.05;0.75;;;16.20;63.20;;;;;;6335971;22;19903;-76
2021/01/31 00:10:44;;;;;;;1.98;0.77;;;16.20;63.20;;;;;;6337785;22;20025;-76
2021/01/31 00:13:11;;;;;;;3.47;1.00;;;16.20;63.10;;;;;;6336193;22;20006;-76
2021/01/31 00:15:42;;;;;;;1.73;0.85;;;16.20;63.10;;;;;;6337849;22;20003;-76
2021/01/31 00:18:13;;;;;;;5.28;2.22;;;16.20;63.10;;;;;;6336231;22;20347;-76
2021/01/31 00:20:42;;;;;;;1.48;0.80;;;16.20;63.10;;;;;;6336148;22;20034;-76
2021/01/31 00:23:09;;;;;;;2.22;0.73;;;16.10;63.10;;;;;;6338141;22;20006;-76
2021/01/31 00:25:35;;;;;;;1.10;0.70;;;16.10;63.10;;;;;;6338839;22;20006;-76
2021/01/31 00:28:02;;;;;;;0.75;0.40;;;16.20;63.10;;;;;;6337852;22;20485;-78
2021/01/31 00:30:29;;;;;;;2.42;0.80;;;16.20;63.10;;;;;;6338651;22;20044;-77
2021/01/31 00:32:56;;;;;;;1.33;0.50;;;16.20;63.10;;;;;;6334845;22;20055;-76
2021/01/31 00:35:23;;;;;;;3.15;1.13;;;16.20;63.10;;;;;;6337392;22;20003;-76
2021/01/31 00:37:49;;;;;;;3.08;0.77;;;16.20;63.00;;;;;;6334787;22;20034;-76
2021/01/31 00:40:15;;;;;;;3.83;0.98;;;16.20;63.00;;;;;;6338404;22;20013;-76
2021/01/31 00:42:41;;;;;;;3.88;1.10;;;16.20;63.10;;;;;;6336762;22;19999;-76
2021/01/31 00:45:11;;;;;;;2.08;1.02;;;16.20;63.00;;;;;;6337573;22;20319;-76
2021/01/31 00:47:37;;;;;;;1.05;0.60;;;16.10;63.00;;;;;;6310506;22;20375;-76
2021/01/31 00:50:04;;;;;;;1.60;0.77;;;16.10;63.00;;;;;;6336846;22;19999;-75
2021/01/31 00:52:30;;;;;;;3.22;0.65;;;16.20;63.00;;;;;;6308679;22;20007;-76
2021/01/31 00:54:55;;;;;;;1.90;1.05;;;16.20;63.00;;;;;;6310244;22;20011;-76
2021/01/31 00:57:21;;;;;;;1.73;0.70;;;16.20;63.10;;;;;;6337434;22;20073;-76
2021/01/31 00:59:47;;;;;;;1.42;0.80;;;16.20;63.10;;;;;;6338176;22;20023;-76
2021/01/31 01:02:20;;;;;;;2.72;0.90;;;16.10;63.10;;;;;;6309505;22;20422;-76
2021/01/31 01:04:47;;;;;;;0.82;0.68;;;16.10;63.10;;;;;;6309866;22;20002;-76
2021/01/31 01:07:14;;;;;;;5.97;1.02;;;16.20;63.10;;;;;;6337719;22;20048;-76
2021/01/31 01:09:40;;;;;;;3.33;1.00;;;16.20;63.10;;;;;;6338194;22;20056;-75
2021/01/31 01:12:06;;;;;;;3.80;0.80;;;16.10;63.10;;;;;;6337653;22;20067;-76
2021/01/31 01:14:32;;;;;;;1.13;0.80;;;16.10;63.10;;;;;;6337051;22;20079;-75
2021/01/31 01:17:03;;;;;;;1.80;0.80;;;16.20;63.10;;;;;;6335797;22;20026;-75
2021/01/31 01:19:29;;;;;;;3.05;0.98;;;16.10;63.00;;;;;;6338059;22;20064;-76
2021/01/31 01:21:57;;;;;;;1.00;0.75;;;16.10;63.10;;;;;;6336948;22;20409;-76
2021/01/31 01:24:23;;;;;;;1.15;0.65;;;16.10;63.10;;;;;;6339620;22;20006;-75
2021/01/31 01:26:48;;;;;;;4.00;1.13;;;16.10;63.00;;;;;;6312078;22;20007;-75
2021/01/31 01:29:15;;;;;;;1.23;0.70;;;16.10;63.00;;;;;;6311235;22;19998;-75
2021/01/31 01:31:41;;;;;;;2.05;0.88;;;16.10;63.00;;;;;;6339592;22;20077;-75
2021/01/31 01:34:09;;;;;;;0.82;0.60;;;16.10;63.00;;;;;;6339210;22;20358;-75
2021/01/31 01:36:34;;;;;;;1.33;0.55;;;16.10;63.00;;;;;;6338719;22;20006;-75
2021/01/31 01:39:00;;;;;;;1.38;0.70;;;16.10;63.00;;;;;;6349411;22;20019;-76
2021/01/31 01:41:35;;;;;;;2.10;0.60;;;16.20;63.00;;;;;;6338316;22;19998;-75
2021/01/31 01:44:00;;;;;;;1.88;1.10;;;16.10;63.00;;;;;;6337506;22;20059;-75
2021/01/31 01:46:34;;;;;;;2.45;0.80;;;16.10;63.00;;;;;;6338085;22;20381;-76
2021/01/31 01:49:12;;;;;;;1.10;0.57;;;16.10;63.00;;;;;;6339584;22;20003;-76
2021/01/31 01:51:45;;;;;;;2.13;0.70;;;16.10;63.00;;;;;;6339822;22;20355;-76
2021/01/31 01:54:17;;;;;;;1.20;0.70;;;16.10;63.10;;;;;;6337649;22;20003;-76
2021/01/31 01:56:48;;;;;;;1.02;0.60;;;16.10;63.10;;;;;;6339081;22;20007;-76
2021/01/31 01:59:14;;;;;;;1.58;0.70;;;16.10;63.10;;;;;;6338196;22;20072;-75
2021/01/31 02:01:47;;;;;;;1.35;0.50;;;16.10;63.10;;;;;;6338240;22;20416;-76
2021/01/31 02:04:13;;;;;;;1.48;1.00;;;16.10;63.10;;;;;;6339794;22;20026;-76
2021/01/31 02:06:39;;;;;;;0.68;0.50;;;16.10;63.20;;;;;;6339833;22;20513;-75
2021/01/31 02:09:06;;;;;;;1.75;0.73;;;16.10;63.20;;;;;;6340994;22;20044;-76
2021/01/31 02:11:32;;;;;;;2.70;0.68;;;16.10;63.30;;;;;;6340063;22;19999;-76
2021/01/31 02:14:02;;;;;;;2.28;0.80;;;16.10;63.30;;;;;;6337605;22;20003;-76
2021/01/31 02:16:37;;;;;;;0.57;0.50;;;16.10;63.40;;;;;;6337885;22;20014;-76
2021/01/31 02:19:30;;;;;;;1.77;0.60;;;16.10;63.30;;;;;;6337753;22;20006;-76
2021/01/31 02:22:27;;;;;;;1.13;0.60;;;16.10;63.30;;;;;;6337890;22;20452;-76
2021/01/31 02:25:08;;;;;;;1.88;0.73;;;16.10;63.30;;;;;;6330200;22;20090;-76
2021/01/31 02:27:56;;;;;;;1.13;0.63;;;16.10;63.30;;;;;;6336124;22;20052;-77
2021/01/31 02:31:02;;;;;;;1.48;0.70;;;16.10;63.20;;;;;;6339189;22;19999;-76
2021/01/31 02:33:47;;;;;;;0.50;0.50;;;16.10;63.20;;;;;;6336970;22;19995;-76
2021/01/31 02:36:38;;;;;;;0.88;0.60;;;16.10;63.20;;;;;;6338745;22;20007;-76
2021/01/31 02:39:35;;;;;;;1.33;0.50;;;16.10;63.20;;;;;;6337070;22;20054;-76
2021/01/31 02:42:23;;;;;;;0.75;0.55;;;16.10;63.20;;;;;;6335550;22;20052;-76
2021/01/31 02:45:02;;;;;;;2.17;0.75;;;16.10;63.20;;;;;;6337559;22;20009;-76
2021/01/31 02:47:31;;;;;;;0.90;0.60;;;16.10;63.10;;;;;;6339382;22;20003;-76
2021/01/31 02:50:08;;;;;;;1.25;0.50;;;16.10;63.20;;;;;;6338881;22;20014;-76
2021/01/31 02:52:40;;;;;;;1.73;1.10;;;16.00;63.10;;;;;;6338151;22;19995;-76
2021/01/31 02:55:14;;;;;;;1.52;0.52;;;16.10;63.10;;;;;;6337876;22;20007;-76
2021/01/31 02:57:50;;;;;;;0.90;0.65;;;16.10;63.10;;;;;;6337896;22;20065;-76
2021/01/31 03:00:22;;;;;;;1.63;0.80;;;16.00;63.10;;;;;;6363647;22;20364;-76
2021/01/31 03:03:36;;;;;;;0.77;0.63;;;16.10;63.10;;;;;;6363616;22;20002;-76
2021/01/31 03:06:05;;;;;;;1.38;0.50;;;16.00;63.10;;;;;;6281111;22;20075;-76
2021/01/31 03:08:45;;;;;;;2.85;0.80;;;16.00;63.00;;;;;;6338895;22;20003;-76
2021/01/31 03:11:31;;;;;;;1.42;0.90;;;16.00;63.00;;;;;;6337923;22;20424;-76
2021/01/31 03:14:29;;;;;;;1.92;0.63;;;16.00;63.00;;;;;;6337895;22;19994;-76
2021/01/31 03:17:02;;;;;;;0.90;0.60;;;16.00;62.90;;;;;;6333133;22;20394;-76
2021/01/31 03:19:40;;;;;;;0.95;0.50;;;16.00;62.90;;;;;;6338986;22;20071;-76
2021/01/31 03:22:32;;;;;;;0.52;0.40;;;16.00;62.90;;;;;;6363029;22;20093;-76
2021/01/31 03:25:03;;;;;;;2.38;0.70;;;16.00;63.00;;;;;;6363016;22;19999;-76
2021/01/31 03:27:36;;;;;;;0.63;0.50;;;16.00;62.90;;;;;;6334495;22;20085;-76
2021/01/31 03:30:04;;;;;;;1.67;0.60;;;16.00;62.90;;;;;;6338432;22;20005;-76
2021/01/31 03:32:36;;;;;;;1.05;0.70;;;16.00;62.90;;;;;;6338151;22;20208;-76
2021/01/31 03:35:08;;;;;;;0.93;0.50;;;16.00;62.90;;;;;;6363020;22;20437;-76
2021/01/31 03:37:43;;;;;;;2.95;0.77;;;16.10;62.90;;;;;;6336090;22;19999;-76
2021/01/31 03:40:12;;;;;;;2.13;0.70;;;16.00;62.90;;;;;;6338417;22;20014;-76
2021/01/31 03:42:38;;;;;;;2.25;0.50;;;16.00;62.80;;;;;;6336827;22;20432;-76
2021/01/31 03:45:07;;;;;;;2.58;0.77;;;16.00;62.80;;;;;;6337231;22;20010;-76
2021/01/31 03:47:50;;;;;;;1.50;0.70;;;16.00;62.80;;;;;;6336892;22;20019;-76
2021/01/31 03:50:16;;;;;;;0.55;0.52;;;16.00;62.80;;;;;;6338293;22;19995;-76
2021/01/31 03:52:42;;;;;;;0.65;0.40;;;16.00;62.70;;;;;;6337590;22;19999;-76
2021/01/31 03:55:08;;;;;;;0.80;0.60;;;16.00;62.80;;;;;;6361798;22;20017;-77
2021/01/31 03:57:48;;;;;;;0.82;0.45;;;16.00;62.70;;;;;;6362647;22;19999;-76
2021/01/31 04:00:23;;;;;;;1.60;0.68;;;16.00;62.70;;;;;;6338272;22;20060;-76
2021/01/31 04:03:13;;;;;;;0.73;0.73;;;16.00;62.70;;;;;;6362935;22;20432;-76
2021/01/31 04:05:53;;;;;;;1.17;0.60;;;16.00;62.70;;;;;;6335576;22;20081;-76
2021/01/31 04:08:19;;;;;;;1.63;0.77;;;16.00;62.70;;;;;;6336632;22;20290;-76
2021/01/31 04:10:45;;;;;;;0.40;0.40;;;16.00;62.70;;;;;;6337867;22;19999;-76
2021/01/31 04:13:12;;;;;;;1.75;0.60;;;16.00;62.70;;;;;;6337220;22;20402;-76
2021/01/31 04:15:54;;;;;;;0.40;0.40;;;16.00;62.70;;;;;;6337854;22;20099;-76
2021/01/31 04:18:21;;;;;;;1.13;0.47;;;16.00;62.70;;;;;;6336753;22;20003;-76
2021/01/31 04:20:48;;;;;;;2.97;1.00;;;16.00;62.70;;;;;;6337778;22;20365;-76
2021/01/31 04:23:14;;;;;;;1.10;0.50;;;15.90;62.60;;;;;;6336601;22;19999;-76
2021/01/31 04:25:40;;;;;;;3.03;0.93;;;15.90;62.70;;;;;;6336619;22;20010;-76
2021/01/31 04:28:12;;;;;;;1.10;0.60;;;16.00;62.60;;;;;;6336795;22;20002;-76
2021/01/31 04:30:40;;;;;;;1.13;0.47;;;16.00;62.60;;;;;;6362705;22;19999;-76
2021/01/31 04:33:08;;;;;;;0.85;0.60;;;15.90;62.60;;;;;;6362664;22;20003;-76
2021/01/31 04:35:33;;;;;;;2.40;0.60;;;15.90;62.60;;;;;;6337435;22;20006;-76
2021/01/31 04:38:00;;;;;;;1.58;0.70;;;15.90;62.60;;;;;;6335629;22;20540;-76
2021/01/31 04:40:27;;;;;;;3.33;0.63;;;16.00;62.60;;;;;;6336901;22;20048;-76
2021/01/31 04:42:53;;;;;;;0.40;0.40;;;16.00;62.60;;;;;;6335837;22;20006;-76
2021/01/31 04:45:18;;;;;;;0.82;0.60;;;16.00;62.50;;;;;;6336389;22;20226;-76
2021/01/31 04:48:19;;;;;;;0.57;0.57;;;16.00;62.50;;;;;;6337970;22;19999;-76
2021/01/31 04:51:16;;;;;;;0.32;0.32;;;16.00;62.50;;;;;;6306359;22;20002;-76
2021/01/31 04:54:06;;;;;;;1.08;0.50;;;15.90;62.50;;;;;;6335700;22;20002;-76
2021/01/31 04:56:42;;;;;;;0.95;0.52;;;15.90;62.50;;;;;;6337281;22;20029;-76
2021/01/31 04:59:22;;;;;;;1.20;0.60;;;15.90;62.50;;;;;;6340303;22;19995;-75
2021/01/31 05:01:54;;;;;;;0.65;0.50;;;16.00;62.60;;;;;;6339695;22;20003;-75
2021/01/31 05:04:22;;;;;;;0.98;0.47;;;15.90;62.60;;;;;;6340049;22;20010;-75
2021/01/31 05:06:52;;;;;;;0.70;0.43;;;15.90;62.60;;;;;;6311891;22;20003;-75
2021/01/31 05:09:26;;;;;;;1.30;0.68;;;15.90;62.60;;;;;;6338804;22;19999;-75
2021/01/31 05:12:04;;;;;;;0.55;0.50;;;15.90;62.60;;;;;;6311212;22;20007;-76
2021/01/31 05:14:32;;;;;;;;;;;16.00;62.70;;;;;;6340081;22;20325;-75
2021/01/31 05:16:58;;;;;;;1.08;0.60;;;15.90;62.70;;;;;;6339873;22;19906;-75
2021/01/31 05:19:30;;;;;;;1.48;0.38;;;15.90;62.70;;;;;;6340267;22;20048;-75
2021/01/31 05:21:56;;;;;;;1.10;0.70;;;15.90;62.70;;;;;;6339128;22;20070;-75
2021/01/31 05:24:24;;;;;;;2.25;0.93;;;16.00;62.70;;;;;;6339639;22;20140;-75
2021/01/31 05:27:00;;;;;;;0.65;0.57;;;15.90;62.70;;;;;;6311683;22;20010;-76
2021/01/31 05:29:35;;;;;;;0.60;0.60;;;15.90;62.70;;;;;;6311844;22;20007;-75
2021/01/31 05:32:11;;;;;;;0.60;0.50;;;15.90;62.70;;;;;;6339195;22;20049;-75
2021/01/31 05:34:48;;;;;;;1.15;0.50;;;15.90;62.70;;;;;;6338965;22;19999;-75
2021/01/31 05:37:41;;;;;;;0.63;0.52;;;16.00;62.70;;;;;;6339283;22;20459;-75
2021/01/31 05:40:11;;;;;;;0.63;0.55;;;15.90;62.70;;;;;;6311221;22;20341;-75
2021/01/31 05:42:45;;;;;;;1.55;0.80;;;15.90;62.70;;;;;;6310668;22;19999;-75
2021/01/31 05:45:20;;;;;;;0.73;0.50;;;15.90;62.70;;;;;;6312164;22;20076;-75
2021/01/31 05:47:48;;;;;;;0.50;0.50;;;15.90;62.70;;;;;;6339059;22;19999;-75
2021/01/31 05:50:17;;;;;;;;;;;15.90;62.70;;;;;;6312724;22;20443;-75
2021/01/31 05:52:43;;;;;;;1.48;0.52;;;15.90;62.70;;;;;;6338296;22;19902;-75
2021/01/31 05:55:41;;;;;;;0.50;0.50;;;15.90;62.70;;;;;;6338712;22;20381;-75
2021/01/31 05:58:16;;;;;;;0.75;0.63;;;15.90;62.70;;;;;;6285484;22;20060;-75
2021/01/31 06:00:44;;;;;;;1.35;0.77;;;15.90;62.70;;;;;;6339847;22;19995;-75
2021/01/31 06:03:10;;;;;;;2.05;0.60;;;15.90;62.70;;;;;;6339409;22;20049;-75
2021/01/31 06:05:37;;;;;;;1.42;0.60;;;15.90;62.70;;;;;;6339662;22;20497;-75
2021/01/31 06:08:10;;;;;;;0.75;0.57;;;15.80;62.70;;;;;;6338292;22;19999;-75
2021/01/31 06:10:40;;;;;;;0.90;0.70;;;15.90;62.60;;;;;;6338431;22;20041;-76
2021/01/31 06:13:07;;;;;;;0.60;0.60;;;15.80;62.60;;;;;;6338475;22;19998;-75
2021/01/31 06:15:56;;;;;;;0.52;0.52;;;15.80;62.60;;;;;;6311551;22;20010;-75
2021/01/31 06:18:45;;;;;;;0.60;0.57;;;15.80;62.60;;;;;;6311435;22;20005;-75
2021/01/31 06:21:14;;;;;;;0.63;0.63;;;15.90;62.60;;;;;;6338645;22;20005;-74
2021/01/31 06:23:50;;;;;;;0.57;0.52;;;16.00;62.40;;;;;;6310041;22;20411;-73
2021/01/31 06:26:31;;;;;;;1.15;0.50;;;15.90;62.50;;;;;;6310482;22;20007;-74
2021/01/31 06:29:10;;;;;;;0.65;0.65;;;15.90;62.70;;;;;;6338151;22;19999;-73
2021/01/31 06:31:50;;;;;;;1.52;0.70;;;15.80;62.70;;;;;;6308938;22;20033;-73
2021/01/31 06:34:16;;;;;;;0.75;0.73;;;15.90;62.80;;;;;;6309989;22;19999;-73
2021/01/31 06:37:19;;;;;;;1.17;0.70;;;15.90;62.90;;;;;;6338391;22;20013;-74
2021/01/31 06:39:47;;;;;;;1.52;0.40;;;15.80;62.90;;;;;;6339137;22;20021;-75
2021/01/31 06:42:17;;;;;;;0.75;0.60;;;15.90;62.90;;;;;;6310632;22;20067;-74
2021/01/31 06:44:52;;;;;;;0.85;0.75;;;15.80;62.90;;;;;;6339095;22;20092;-76
2021/01/31 06:47:29;;;;;;;0.70;0.70;;;15.90;63.00;;;;;;6338724;22;19995;-75
2021/01/31 06:50:13;;;;;;;1.15;0.60;;;15.80;63.00;;;;;;6311416;22;19995;-75
2021/01/31 06:53:07;;;;;;;0.95;0.65;;;15.90;63.00;;;;;;6338432;22;19995;-75
2021/01/31 06:55:46;;;;;;;0.98;0.70;;;15.80;63.00;;;;;;6276033;22;20463;-75
2021/01/31 06:58:34;;;;;;;1.08;0.73;;;15.80;63.10;;;;;;6310069;22;20003;-75
2021/01/31 07:01:24;;;;;;;1.27;0.88;;;15.80;63.10;;;;;;6338563;22;20003;-75
2021/01/31 07:04:11;;;;;;;0.80;0.70;;;15.80;63.10;;;;;;6311105;22;20099;-75
2021/01/31 07:07:03;;;;;;;1.08;0.55;;;15.90;63.20;;;;;;6310403;22;19998;-75
2021/01/31 07:10:19;;;;;;;1.58;0.73;;;15.80;63.20;;;;;;6291579;22;20001;-75
2021/01/31 07:13:00;;;;;;;1.38;0.90;;;15.80;63.20;;;;;;6337274;22;19991;-75
2021/01/31 07:15:32;;;;;;;0.52;0.52;;;15.90;63.20;;;;;;6310357;22;20089;-76
2021/01/31 07:18:03;;;;;;;0.85;0.63;;;15.90;63.20;;;;;;6337435;22;20007;-75
2021/01/31 07:20:44;;;;;;;0.88;0.47;;;15.80;63.20;;;;;;6310663;22;20009;-75
2021/01/31 07:23:33;;;;;;;1.02;0.40;;;15.80;63.20;;;;;;6337958;22;19999;-75
2021/01/31 07:26:23;;;;;;;1.20;0.63;;;15.80;63.30;;;;;;6336867;22;20074;-75
2021/01/31 07:28:54;;;;;;;0.90;0.80;;;15.90;63.30;;;;;;6337510;22;20069;-75
2021/01/31 07:31:43;;;;;;;0.65;0.65;;;15.80;63.30;;;;;;6338524;22;20003;-75
2021/01/31 07:34:26;;;;;;;1.58;0.70;;;15.90;63.30;;;;;;6338469;22;19994;-75
2021/01/31 07:37:09;;;;;;;0.60;0.60;;;15.90;63.30;;;;;;6309707;22;20087;-75
2021/01/31 07:39:50;;;;;;;0.60;0.60;;;15.80;63.20;;;;;;6337357;22;20010;-75
2021/01/31 07:42:17;;;;;;;0.93;0.80;;;15.90;63.30;;;;;;6338031;22;20416;-75
2021/01/31 07:44:47;;;;;;;0.73;0.50;;;15.90;63.30;;;;;;6338537;22;19990;-75
2021/01/31 07:47:13;;;;;;;0.70;0.70;;;15.80;63.30;;;;;;6338235;22;20002;-75
2021/01/31 07:49:55;;;;;;;1.75;1.10;;;15.90;63.30;;;;;;6336997;22;20029;-75
2021/01/31 07:52:23;;;;;;;0.90;0.70;;;15.90;63.20;;;;;;6310538;22;20327;-75
2021/01/31 07:55:15;;;;;;;1.30;0.70;;;15.90;63.30;;;;;;6337625;22;20025;-75
2021/01/31 07:57:41;;;;;;;1.67;0.60;;;15.80;63.30;;;;;;6336904;22;20003;-75
2021/01/31 08:00:43;;;;;;;0.60;0.60;;;15.90;63.30;;;;;;6310562;22;20435;-75
2021/01/31 08:03:27;;;;;;;0.50;0.50;;;15.90;63.20;;;;;;6310728;22;20059;-75
2021/01/31 08:06:04;;;;;;;1.23;0.60;;;15.90;63.30;;;;;;6310781;22;20002;-75
2021/01/31 08:09:05;;;;;;;2.00;0.88;;;15.90;63.30;;;;;;6307974;22;20478;-75
2021/01/31 08:11:54;;;;;;;0.63;0.60;;;15.90;63.30;;;;;;6241735;23;20032;-75
2021/01/31 08:14:57;;;;;;;0.63;0.50;;;15.90;63.20;;;;;;6330825;22;20412;-75
2021/01/31 08:17:44;;;;;;;1.38;0.80;;;15.90;63.30;;;;;;6337359;22;20007;-76
2021/01/31 08:20:19;;;;;;;1.80;0.73;;;15.90;63.30;;;;;;6310215;22;20003;-75
2021/01/31 08:22:45;;;;;;;1.00;0.60;;;15.90;63.30;;;;;;6338267;22;20217;-75
2021/01/31 08:25:11;;;;;;;0.85;0.63;;;15.90;63.30;;;;;;6337926;22;20078;-75
2021/01/31 08:27:42;;;;;;;1.08;0.80;;;15.80;63.30;;;;;;6309601;22;20409;-75
2021/01/31 08:30:17;;;;;;;1.02;0.60;;;15.90;63.30;;;;;;6310224;22;20057;-75
2021/01/31 08:33:19;;;;;;;0.57;0.55;;;15.90;63.30;;;;;;6337079;22;20037;-75
2021/01/31 08:35:45;;;;;;;1.25;0.60;;;15.90;63.30;;;;;;6335528;22;20490;-75
2021/01/31 08:38:18;;;;;;;0.70;0.60;;;15.90;63.30;;;;;;6335732;22;20011;-75
2021/01/31 08:41:03;;;;;;;0.85;0.60;;;15.90;63.30;;;;;;6336483;22;20478;-75
2021/01/31 08:43:52;;;;;;;0.82;0.73;;;15.90;63.20;;;;;;6336745;22;20065;-75
2021/01/31 08:46:32;;;;;;;2.15;0.70;;;15.90;63.20;;;;;;6336773;22;20082;-75
2021/01/31 08:49:09;;;;;;;0.60;0.60;;;15.90;63.30;;;;;;6335420;22;19991;-75
2021/01/31 08:51:41;;;;;;;0.70;0.70;;;15.90;63.20;;;;;;6337619;22;20051;-75
2021/01/31 08:54:15;;;;;;;1.33;0.90;;;15.90;63.20;;;;;;6309742;22;20010;-76
2021/01/31 08:56:56;;;;;;;0.70;0.70;;;15.90;63.20;;;;;;6337802;22;20052;-75
2021/01/31 08:59:52;;;;;;;0.60;0.57;;;15.90;63.20;;;;;;6335144;22;19999;-75
2021/01/31 09:02:22;;;;;;;1.25;0.75;;;15.90;63.20;;;;;;6337493;22;20023;-75
2021/01/31 09:04:52;;;;;;;0.55;0.55;;;15.90;63.30;;;;;;6310475;22;20042;-75
2021/01/31 09:07:39;;;;;;;1.10;0.88;;;15.90;63.30;;;;;;6337235;22;20300;-75
2021/01/31 09:10:31;;;;;;;0.47;0.47;;;15.90;63.30;;;;;;6309384;22;19999;-75
2021/01/31 09:13:24;;;;;;;0.63;0.63;;;15.90;63.30;;;;;;6309496;22;20009;-75
2021/01/31 09:15:49;;;;;;;1.25;0.77;;;15.90;63.20;;;;;;6310165;22;20003;-75
2021/01/31 09:18:19;;;;;;;2.05;1.60;;;15.90;63.20;;;;;;6337505;22;20002;-75
2021/01/31 09:20:45;;;;;;;1.00;0.90;;;15.90;63.20;;;;;;6337087;22;19998;-75
2021/01/31 09:23:20;;;;;;;0.82;0.70;;;15.90;63.30;;;;;;6282327;22;20009;-75
2021/01/31 09:25:47;;;;;;;0.70;0.70;;;15.90;63.20;;;;;;6336922;22;19999;-75
2021/01/31 09:28:26;;;;;;;0.70;0.63;;;15.90;63.20;;;;;;6335711;22;20003;-75
2021/01/31 09:30:59;;;;;;;0.65;0.50;;;15.90;63.20;;;;;;6309665;22;20048;-75
2021/01/31 09:33:39;;;;;;;1.30;0.60;;;15.90;63.10;;;;;;6310118;22;20045;-75
2021/01/31 09:36:37;;;;;;;0.88;0.70;;;15.90;63.10;;;;;;6335004;22;20329;-75
2021/01/31 09:39:06;;;;;;;0.60;0.50;;;16.00;63.10;;;;;;6294880;22;20018;-75
2021/01/31 09:41:32;;;;;;;;;;;15.90;63.10;;;;;;6337889;22;19994;-75
2021/01/31 09:44:01;;;;;;;0.50;0.50;;;16.00;63.10;;;;;;6338283;22;20210;-75
2021/01/31 09:46:28;;;;;;;1.40;0.80;;;16.00;63.10;;;;;;6339589;22;20003;-75
2021/01/31 09:49:10;;;;;;;1.23;0.73;;;16.00;63.10;;;;;;6339245;22;20484;-75
2021/01/31 09:51:36;;;;;;;0.95;0.70;;;16.00;63.10;;;;;;6339544;22;19991;-75
2021/01/31 09:54:32;;;;;;;1.33;1.08;;;16.00;63.10;;;;;;6338184;22;20003;-75
2021/01/31 09:57:01;;;;;;;1.20;0.60;;;16.00;63.00;;;;;;6324727;22;20091;-76
2021/01/31 09:59:36;;;;;;;1.58;0.68;;;16.00;63.00;;;;;;6338368;22;19999;-75
2021/01/31 10:02:22;;;;;;;1.10;0.50;;;16.00;63.00;;;;;;6339065;22;20005;-75
2021/01/31 10:04:58;;;;;;;1.60;0.68;;;16.00;63.00;;;;;;6338034;22;20007;-75
2021/01/31 10:07:33;;;;;;;0.80;0.60;;;16.00;63.00;;;;;;6336944;22;20029;-75
2021/01/31 10:10:19;;;;;;;0.75;0.55;;;16.00;63.00;;;;;;6337245;22;20306;-75
2021/01/31 10:12:45;;;;;;;0.82;0.60;;;16.00;63.00;;;;;;6336650;22;19999;-75
2021/01/31 10:15:15;;;;;;;5.78;1.27;;;16.00;63.00;;;;;;6363681;22;20015;-75
2021/01/31 10:17:45;;;;;;;0.63;0.52;;;16.00;63.10;;;;;;6339271;22;20041;-75
2021/01/31 10:20:28;;;;;;;2.28;0.70;;;16.00;63.10;;;;;;6338878;22;19998;-75
2021/01/31 10:23:09;;;;;;;1.42;0.82;;;16.00;63.10;;;;;;6336528;22;20432;-75
2021/01/31 10:25:37;;;;;;;0.88;0.75;;;16.00;63.10;;;;;;6335398;22;20006;-75
2021/01/31 10:28:04;;;;;;;0.65;0.52;;;16.00;63.10;;;;;;6338159;22;20002;-75
2021/01/31 10:30:53;;;;;;;0.77;0.68;;;16.00;63.00;;;;;;6338520;22;20066;-77
2021/01/31 10:33:41;;;;;;;1.85;0.93;;;16.10;63.00;;;;;;6337462;22;19995;-77
2021/01/31 10:36:25;;;;;;;0.82;0.65;;;16.00;63.00;;;;;;6336982;22;20332;-76
2021/01/31 10:38:57;;;;;;;0.90;0.68;;;16.00;63.00;;;;;;6337026;22;20046;-77
2021/01/31 10:41:23;;;;;;;1.45;0.80;;;16.00;63.10;;;;;;6337493;22;20002;-77
2021/01/31 10:44:23;;;;;;;0.70;0.70;;;16.00;63.10;;;;;;6310745;22;20293;-78
2021/01/31 10:46:48;;;;;;;0.88;0.80;;;16.00;63.00;;;;;;6302268;22;20425;-77
2021/01/31 10:49:15;;;;;;;0.65;0.50;;;16.00;63.10;;;;;;6338967;22;19999;-77
2021/01/31 10:51:43;;;;;;;0.85;0.63;;;16.00;63.10;;;;;;6311152;22;20051;-77
2021/01/31 10:54:09;;;;;;;1.30;0.88;;;16.00;63.10;;;;;;6336322;22;20044;-77
2021/01/31 10:56:39;;;;;;;1.33;0.90;;;16.00;63.10;;;;;;6338407;22;20085;-77
2021/01/31 10:59:05;;;;;;;0.70;0.65;;;16.00;63.10;;;;;;6337671;22;20320;-78
2021/01/31 11:01:31;;;;;;;0.70;0.65;;;16.00;63.10;;;;;;6311325;22;19999;-76
2021/01/31 11:03:57;;;;;;;0.52;0.50;;;16.00;63.10;;;;;;6338578;22;20165;-77
2021/01/31 11:06:24;;;;;;;0.73;0.70;;;16.00;63.10;;;;;;6336672;22;20087;-75
2021/01/31 11:08:50;;;;;;;0.90;0.57;;;16.00;63.10;;;;;;6310109;22;20085;-76
2021/01/31 11:11:17;;;;;;;1.23;0.82;;;16.00;63.00;;;;;;6310651;22;20493;-76
2021/01/31 11:13:43;;;;;;;0.95;0.70;;;16.10;63.00;;;;;;6337292;22;20022;-77
2021/01/31 11:16:08;;;;;;;0.70;0.70;;;16.00;62.90;;;;;;6337878;22;20026;-76
2021/01/31 11:18:34;;;;;;;0.60;0.60;;;16.10;63.00;;;;;;6338604;22;20408;-77
2021/01/31 11:21:04;;;;;;;1.95;0.73;;;16.00;63.00;;;;;;6311089;22;20078;-77
2021/01/31 11:23:30;;;;;;;0.95;0.85;;;16.00;63.00;;;;;;6337780;22;19995;-77
2021/01/31 11:26:00;;;;;;;0.95;0.80;;;16.00;63.00;;;;;;6338780;22;20005;-77
2021/01/31 11:28:25;;;;;;;0.73;0.60;;;16.00;63.00;;;;;;6336405;22;19995;-77
2021/01/31 11:30:51;;;;;;;0.65;0.60;;;16.00;63.00;;;;;;6338775;22;20041;-75
2021/01/31 11:33:17;;;;;;;1.13;0.60;;;16.00;63.00;;;;;;6337390;22;20384;-75
2021/01/31 11:35:42;;;;;;;1.00;0.90;;;16.00;63.00;;;;;;6310536;22;20012;-75
2021/01/31 11:38:09;;;;;;;1.10;0.52;;;16.00;63.00;;;;;;6337506;22;20011;-75
2021/01/31 11:40:34;;;;;;;0.75;0.75;;;16.00;63.00;;;;;;6338447;22;20420;-76
2021/01/31 11:43:00;;;;;;;1.20;0.82;;;16.00;63.00;;;;;;6337732;22;20132;-75
2021/01/31 11:45:27;;;;;;;0.63;0.63;;;16.00;63.00;;;;;;6310530;22;20325;-75
2021/01/31 11:47:53;;;;;;;0.82;0.70;;;16.00;63.00;;;;;;6338018;22;20002;-75
2021/01/31 11:50:20;;;;;;;0.57;0.57;;;16.00;63.10;;;;;;6310092;22;20090;-74
2021/01/31 11:52:47;;;;;;;1.00;0.80;;;16.00;63.10;;;;;;6337871;22;20108;-75
2021/01/31 11:55:14;;;;;;;1.27;0.70;;;16.00;63.10;;;;;;6335885;22;20530;-75
2021/01/31 11:57:40;;;;;;;2.17;1.40;;;16.00;63.20;;;;;;6334452;22;20020;-75
2021/01/31 12:00:15;;;;;;;1.45;1.00;;;16.00;63.20;;;;;;6309690;22;20007;-73
2021/01/31 12:02:41;;;;;;;2.00;1.00;;;16.00;63.20;;;;;;6337937;22;19998;-75
2021/01/31 12:05:13;;;;;;;2.53;1.40;;;16.00;63.20;;;;;;6285666;22;20051;-75
2021/01/31 12:07:39;;;;;;;2.50;1.00;;;16.00;63.20;;;;;;6309940;22;20328;-75
2021/01/31 12:10:10;;;;;;;1.73;1.23;;;15.90;63.20;;;;;;6336488;22;20003;-74
2021/01/31 12:12:35;;;;;;;5.32;1.60;;;16.00;63.20;;;;;;6310026;22;20087;-74
2021/01/31 12:15:01;;;;;;;4.30;1.73;;;15.90;63.40;;;;;;6337641;22;20030;-75
2021/01/31 12:17:27;;;;;;;1.75;1.20;;;16.00;63.70;;;;;;6310740;22;20011;-75
2021/01/31 12:19:52;;;;;;;6.07;1.65;;;16.00;63.50;;;;;;6336680;22;20007;-75
2021/01/31 12:22:18;;;;;;;3.45;1.48;;;16.00;63.50;;;;;;6337466;22;19995;-75
2021/01/31 12:24:45;;;;;;;3.58;2.03;;;15.90;63.40;;;;;;6337910;22;20087;-75
2021/01/31 12:27:12;;;;;;;8.07;2.10;;;15.90;63.40;;;;;;6309444;22;20011;-75
2021/01/31 12:29:37;;;;;;;4.05;1.67;;;16.00;63.40;;;;;;6310155;22;20072;-75
2021/01/31 12:32:03;;;;;;;2.72;1.80;;;15.90;63.40;;;;;;6337728;22;20417;-75
2021/01/31 12:34:29;;;;;;;3.47;1.60;;;16.00;63.40;;;;;;6333344;22;19999;-75
2021/01/31 12:36:54;;;;;;;2.63;1.35;;;16.00;63.40;;;;;;6334225;22;20079;-75
2021/01/31 12:39:20;;;;;;;4.13;1.58;;;16.00;63.40;;;;;;6350819;22;20464;-75
2021/01/31 12:41:47;;;;;;;6.85;1.52;;;16.00;63.40;;;;;;6336869;22;20086;-75
2021/01/31 12:44:17;;;;;;;4.88;1.60;;;16.00;63.40;;;;;;6336643;22;20038;-75
2021/01/31 12:46:43;;;;;;;4.70;1.85;;;16.00;63.40;;;;;;6337318;22;20002;-75
2021/01/31 12:49:13;;;;;;;6.30;2.08;;;15.90;63.40;;;;;;6337189;22;20482;-75
2021/01/31 12:51:39;;;;;;;8.00;3.17;;;16.00;63.40;;;;;;6334428;22;20003;-75
2021/01/31 12:54:04;;;;;;;6.90;1.90;;;15.90;63.40;;;;;;6335109;22;19995;-75
2021/01/31 12:56:30;;;;;;;4.25;1.73;;;16.00;63.30;;;;;;6337581;22;20010;-75
2021/01/31 12:59:00;;;;;;;5.85;2.10;;;16.00;63.30;;;;;;6334875;22;20054;-75
2021/01/31 13:01:26;;;;;;;9.80;1.83;;;16.00;63.30;;;;;;6337946;22;19995;-75
2021/01/31 13:03:52;;;;;;;3.60;1.90;;;16.00;63.30;;;;;;6337104;22;20165;-75
2021/01/31 13:06:17;;;;;;;2.60;1.60;;;16.00;63.30;;;;;;6361075;22;20036;-75
2021/01/31 13:08:43;;;;;;;3.90;1.70;;;16.00;63.30;;;;;;6336575;22;20044;-75
2021/01/31 13:11:13;;;;;;;3.67;1.55;;;16.00;63.20;;;;;;6336274;22;19999;-75
2021/01/31 13:13:39;;;;;;;5.03;2.15;;;16.10;63.10;;;;;;6336426;22;19994;-75
2021/01/31 13:16:04;;;;;;;5.72;2.17;;;16.00;63.10;;;;;;6336583;22;20010;-75
2021/01/31 13:18:30;;;;;;;6.05;2.30;;;16.10;63.00;;;;;;6338700;22;19998;-75
2021/01/31 13:21:00;;;;;;;6.32;2.45;;;16.00;63.00;;;;;;6363997;22;19999;-75